createdAt,value
2019-01-31T00:00:54.414Z,1.80
2019-01-31T00:01:54.422Z,1.90
2019-01-31T00:02:54.385Z,1.80
2019-01-31T00:03:54.375Z,1.90
2019-01-31T00:04:54.384Z,1.80
2019-01-31T00:05:54.341Z,1.70
2019-01-31T00:06:54.363Z,1.80
2019-01-31T00:07:54.338Z,1.80
2019-01-31T00:08:54.344Z,1.80
2019-01-31T00:09:54.369Z,1.70
2019-01-31T00:10:54.286Z,1.80
2019-01-31T00:11:54.318Z,1.70
2019-01-31T00:12:54.290Z,1.70
2019-01-31T00:13:54.257Z,1.70
2019-01-31T00:14:54.255Z,1.60
2019-01-31T00:15:54.246Z,1.70
2019-01-31T00:16:54.254Z,1.70
2019-01-31T00:17:54.235Z,1.70
2019-01-31T00:18:54.202Z,1.70
2019-01-31T00:19:54.218Z,1.60
2019-01-31T00:20:54.180Z,1.70
2019-01-31T00:21:54.283Z,2.00
2019-01-31T00:22:54.150Z,1.80
2019-01-31T00:23:54.138Z,1.80
2019-01-31T00:24:54.160Z,1.60
2019-01-31T00:25:54.178Z,1.90
2019-01-31T00:26:54.189Z,1.50
2019-01-31T00:27:54.115Z,1.50
2019-01-31T00:28:54.131Z,1.80
2019-01-31T00:29:54.071Z,1.70
2019-01-31T00:30:54.094Z,1.70
2019-01-31T00:31:54.089Z,1.60
2019-01-31T00:32:54.086Z,1.70
2019-01-31T00:33:54.034Z,1.80
2019-01-31T00:34:54.032Z,1.60
2019-01-31T00:35:54.056Z,1.70
2019-01-31T00:36:53.998Z,1.80
2019-01-31T00:37:54.013Z,1.70
2019-01-31T00:38:56.908Z,1.90
2019-01-31T00:39:53.963Z,1.60
2019-01-31T00:40:53.983Z,1.70
2019-01-31T00:41:53.963Z,1.70
2019-01-31T00:42:53.932Z,1.70
2019-01-31T00:43:53.944Z,1.60
2019-01-31T00:44:53.955Z,1.60
2019-01-31T00:45:54.029Z,1.50
2019-01-31T00:46:53.882Z,1.50
2019-01-31T00:47:53.897Z,1.70
2019-01-31T00:48:53.902Z,2.10
2019-01-31T00:49:53.856Z,1.70
2019-01-31T00:50:53.837Z,1.60
2019-01-31T00:51:53.830Z,1.60
2019-01-31T00:52:53.842Z,1.70
2019-01-31T00:53:53.836Z,1.60
2019-01-31T00:54:53.800Z,1.70
2019-01-31T00:55:53.805Z,1.60
2019-01-31T00:56:53.861Z,1.60
2019-01-31T00:57:53.765Z,1.50
2019-01-31T00:58:53.763Z,1.50
2019-01-31T00:59:53.745Z,1.50
2019-01-31T01:00:53.758Z,1.40
2019-01-31T01:01:53.804Z,1.60
2019-01-31T01:02:53.693Z,1.50
2019-01-31T01:03:53.701Z,1.70
2019-01-31T01:04:53.698Z,1.60
2019-01-31T01:05:53.700Z,1.60
2019-01-31T01:06:53.658Z,1.50
2019-01-31T01:07:53.648Z,1.50
2019-01-31T01:08:53.642Z,1.50
2019-01-31T01:09:53.622Z,1.40
2019-01-31T01:10:53.637Z,1.50
2019-01-31T01:11:53.821Z,1.50
2019-01-31T01:12:53.618Z,1.50
2019-01-31T01:13:53.575Z,1.50
2019-01-31T01:14:53.587Z,1.50
2019-01-31T01:15:53.586Z,1.60
2019-01-31T01:16:53.588Z,1.60
2019-01-31T01:17:53.598Z,1.60
2019-01-31T01:18:53.514Z,1.40
2019-01-31T01:19:53.609Z,1.50
2019-01-31T01:20:53.510Z,1.40
2019-01-31T01:21:53.520Z,1.50
2019-01-31T01:22:53.477Z,1.60
2019-01-31T01:23:53.513Z,1.70
2019-01-31T01:24:53.445Z,1.40
2019-01-31T01:25:53.442Z,1.60
2019-01-31T01:26:53.438Z,1.50
2019-01-31T01:27:53.426Z,1.30
2019-01-31T01:28:53.423Z,1.60
2019-01-31T01:29:53.431Z,1.70
2019-01-31T01:30:53.401Z,1.50
2019-01-31T01:31:53.396Z,1.50
2019-01-31T01:32:53.370Z,1.40
2019-01-31T01:33:53.361Z,1.50
2019-01-31T01:35:01.153Z,1.60
2019-01-31T01:35:54.344Z,1.50
2019-01-31T01:36:53.350Z,1.40
2019-01-31T01:37:53.324Z,1.40
2019-01-31T01:38:53.335Z,1.50
2019-01-31T01:39:53.291Z,1.50
2019-01-31T01:40:53.272Z,1.60
2019-01-31T01:41:53.374Z,1.40
2019-01-31T01:42:53.246Z,1.50
2019-01-31T01:43:53.232Z,1.50
2019-01-31T01:44:53.243Z,1.40
2019-01-31T01:45:53.274Z,1.70
2019-01-31T01:46:53.298Z,1.40
2019-01-31T01:47:53.243Z,1.60
2019-01-31T01:48:53.174Z,1.50
2019-01-31T01:49:53.182Z,1.30
2019-01-31T01:50:53.174Z,1.50
2019-01-31T01:51:53.183Z,1.40
2019-01-31T01:52:53.173Z,1.50
2019-01-31T01:53:53.145Z,1.40
2019-01-31T01:54:53.149Z,1.50
2019-01-31T01:55:53.123Z,1.40
2019-01-31T01:56:53.103Z,1.40
2019-01-31T01:57:53.112Z,1.50
2019-01-31T01:58:53.060Z,1.40
2019-01-31T01:59:53.059Z,1.60
2019-01-31T02:00:53.104Z,1.40
2019-01-31T02:01:53.034Z,1.30
2019-01-31T02:02:53.061Z,1.30
2019-01-31T02:03:53.073Z,1.30
2019-01-31T02:04:52.998Z,1.50
2019-01-31T02:05:53.027Z,1.50
2019-01-31T02:06:52.975Z,1.40
2019-01-31T02:07:53.063Z,1.30
2019-01-31T02:08:52.945Z,1.50
2019-01-31T02:09:52.934Z,1.50
2019-01-31T02:10:52.927Z,1.50
2019-01-31T02:11:52.999Z,1.40
2019-01-31T02:12:53.018Z,1.60
2019-01-31T02:13:52.925Z,1.50
2019-01-31T02:14:52.954Z,1.40
2019-01-31T02:15:52.881Z,1.30
2019-01-31T02:16:52.867Z,1.40
2019-01-31T02:17:52.853Z,1.40
2019-01-31T02:18:52.905Z,1.40
2019-01-31T02:19:52.844Z,1.20
2019-01-31T02:20:52.807Z,1.40
2019-01-31T02:21:52.896Z,1.40
2019-01-31T02:22:52.829Z,1.40
2019-01-31T02:23:52.848Z,1.50
2019-01-31T02:24:52.778Z,1.30
2019-01-31T02:25:52.833Z,1.40
2019-01-31T02:26:52.812Z,1.50
2019-01-31T02:27:52.766Z,1.40
2019-01-31T02:28:52.745Z,1.50
2019-01-31T02:29:52.707Z,1.50
2019-01-31T02:30:52.717Z,1.30
2019-01-31T02:31:52.715Z,1.50
2019-01-31T02:32:52.750Z,1.30
2019-01-31T02:33:52.678Z,1.50
2019-01-31T02:34:52.713Z,1.30
2019-01-31T02:35:52.657Z,1.20
2019-01-31T02:36:52.643Z,1.30
2019-01-31T02:37:52.663Z,1.30
2019-01-31T02:38:52.615Z,1.40
2019-01-31T02:39:52.649Z,1.20
2019-01-31T02:40:52.588Z,1.30
2019-01-31T02:41:52.722Z,1.40
2019-01-31T02:42:52.580Z,1.20
2019-01-31T02:43:52.570Z,1.40
2019-01-31T02:44:52.593Z,1.50
2019-01-31T02:45:52.540Z,1.30
2019-01-31T02:46:52.556Z,1.50
2019-01-31T02:47:52.525Z,1.30
2019-01-31T02:48:52.534Z,1.30
2019-01-31T02:49:52.511Z,1.10
2019-01-31T02:50:52.532Z,1.30
2019-01-31T02:51:52.484Z,1.40
2019-01-31T02:52:52.476Z,1.30
2019-01-31T02:53:52.493Z,1.40
2019-01-31T02:54:52.436Z,1.30
2019-01-31T02:55:52.438Z,1.20
2019-01-31T02:56:52.431Z,1.30
2019-01-31T02:57:52.405Z,1.40
2019-01-31T02:58:52.407Z,1.50
2019-01-31T02:59:52.377Z,1.20
2019-01-31T03:00:52.366Z,1.40
2019-01-31T03:01:52.413Z,1.40
2019-01-31T03:02:52.344Z,1.50
2019-01-31T03:03:52.437Z,1.40
2019-01-31T03:04:52.347Z,1.30
2019-01-31T03:05:52.372Z,1.50
2019-01-31T03:06:52.354Z,1.30
2019-01-31T03:07:52.280Z,1.10
2019-01-31T03:08:52.330Z,1.30
2019-01-31T03:09:54.891Z,1.30
2019-01-31T03:10:52.243Z,1.20
2019-01-31T03:11:52.259Z,1.40
2019-01-31T03:12:52.236Z,1.20
2019-01-31T03:13:52.219Z,1.30
2019-01-31T03:14:52.202Z,1.50
2019-01-31T03:15:52.231Z,1.50
2019-01-31T03:16:52.207Z,1.30
2019-01-31T03:17:52.196Z,1.20
2019-01-31T03:18:52.182Z,1.20
2019-01-31T03:19:52.146Z,1.40
2019-01-31T03:20:52.169Z,1.30
2019-01-31T03:21:52.129Z,1.20
2019-01-31T03:22:52.112Z,1.20
2019-01-31T03:23:52.100Z,1.40
2019-01-31T03:24:52.130Z,1.30
2019-01-31T03:25:52.078Z,1.30
2019-01-31T03:26:52.063Z,1.40
2019-01-31T03:27:52.080Z,1.40
2019-01-31T03:28:52.074Z,1.40
2019-01-31T03:29:52.059Z,1.40
2019-01-31T03:30:52.047Z,1.40
2019-01-31T03:31:52.026Z,1.40
2019-01-31T03:32:51.997Z,1.30
2019-01-31T03:33:52.029Z,1.30
2019-01-31T03:34:52.017Z,1.20
2019-01-31T03:35:51.979Z,1.30
2019-01-31T03:36:51.961Z,1.30
2019-01-31T03:37:52.012Z,1.20
2019-01-31T03:38:51.972Z,1.20
2019-01-31T03:39:51.952Z,1.40
2019-01-31T03:40:52.006Z,1.20
2019-01-31T03:41:52.002Z,1.40
2019-01-31T03:42:51.882Z,1.30
2019-01-31T03:43:51.904Z,1.50
2019-01-31T03:44:51.870Z,1.30
2019-01-31T03:45:51.859Z,1.40
2019-01-31T03:46:51.917Z,1.20
2019-01-31T03:47:51.860Z,1.30
2019-01-31T03:48:51.898Z,1.20
2019-01-31T03:49:51.822Z,1.30
2019-01-31T03:50:51.812Z,1.20
2019-01-31T03:51:51.806Z,1.30
2019-01-31T03:52:51.827Z,1.20
2019-01-31T03:53:51.764Z,1.20
2019-01-31T03:54:51.816Z,1.30
2019-01-31T03:55:51.754Z,1.20
2019-01-31T03:56:51.772Z,1.30
2019-01-31T03:57:51.812Z,1.30
2019-01-31T03:58:51.700Z,1.40
2019-01-31T03:59:51.719Z,1.30
2019-01-31T04:00:51.686Z,1.30
2019-01-31T04:01:51.672Z,1.30
2019-01-31T04:02:51.666Z,1.30
2019-01-31T04:03:51.644Z,1.40
2019-01-31T04:04:51.674Z,1.30
2019-01-31T04:05:51.650Z,1.30
2019-01-31T04:06:51.619Z,1.40
2019-01-31T04:07:51.619Z,1.20
2019-01-31T04:08:51.611Z,1.40
2019-01-31T04:09:51.607Z,1.20
2019-01-31T04:10:51.571Z,1.30
2019-01-31T04:11:56.191Z,1.20
2019-01-31T04:12:51.552Z,1.20
2019-01-31T04:13:51.551Z,1.30
2019-01-31T04:14:51.531Z,1.20
2019-01-31T04:15:51.554Z,1.30
2019-01-31T04:16:51.504Z,1.20
2019-01-31T04:17:51.489Z,1.20
2019-01-31T04:18:51.484Z,1.30
2019-01-31T04:19:51.459Z,1.30
2019-01-31T04:20:51.476Z,1.30
2019-01-31T04:21:51.484Z,1.40
2019-01-31T04:22:51.454Z,1.30
2019-01-31T04:23:51.429Z,1.20
2019-01-31T04:24:51.423Z,1.30
2019-01-31T04:25:51.408Z,1.20
2019-01-31T04:26:51.396Z,1.30
2019-01-31T04:27:51.386Z,1.30
2019-01-31T04:28:51.450Z,1.20
2019-01-31T04:29:51.398Z,1.00
2019-01-31T04:30:51.352Z,1.20
2019-01-31T04:31:51.354Z,1.30
2019-01-31T04:32:51.316Z,1.20
2019-01-31T04:33:51.347Z,1.10
2019-01-31T04:34:51.325Z,1.10
2019-01-31T04:35:51.349Z,1.30
2019-01-31T04:36:51.284Z,1.30
2019-01-31T04:37:51.268Z,1.30
2019-01-31T04:38:51.295Z,1.30
2019-01-31T04:39:51.290Z,1.20
2019-01-31T04:40:51.235Z,1.30
2019-01-31T04:41:51.284Z,1.30
2019-01-31T04:42:51.219Z,1.30
2019-01-31T04:43:51.278Z,1.30
2019-01-31T04:44:51.194Z,1.30
2019-01-31T04:45:51.221Z,1.10
2019-01-31T04:46:51.208Z,1.30
2019-01-31T04:47:51.152Z,1.20
2019-01-31T04:48:51.191Z,1.30
2019-01-31T04:49:51.135Z,1.30
2019-01-31T04:50:51.151Z,1.30
2019-01-31T04:51:51.201Z,1.30
2019-01-31T04:52:51.099Z,1.20
2019-01-31T04:53:51.106Z,1.20
2019-01-31T04:54:51.105Z,1.20
2019-01-31T04:55:51.061Z,1.10
2019-01-31T04:56:51.067Z,1.10
2019-01-31T04:57:51.191Z,1.40
2019-01-31T04:58:51.030Z,1.20
2019-01-31T04:59:51.018Z,1.30
2019-01-31T05:00:51.005Z,1.20
2019-01-31T05:01:51.028Z,1.40
2019-01-31T05:02:50.997Z,1.20
2019-01-31T05:03:51.027Z,1.10
2019-01-31T05:04:51.044Z,1.30
2019-01-31T05:05:50.952Z,1.20
2019-01-31T05:06:50.994Z,1.20
2019-01-31T05:07:50.954Z,1.30
2019-01-31T05:08:51.025Z,1.10
2019-01-31T05:09:50.897Z,1.20
2019-01-31T05:10:50.910Z,1.20
2019-01-31T05:11:50.931Z,1.10
2019-01-31T05:12:50.922Z,1.30
2019-01-31T05:13:51.024Z,1.10
2019-01-31T05:14:50.858Z,1.20
2019-01-31T05:15:50.857Z,1.20
2019-01-31T05:16:50.981Z,1.20
2019-01-31T05:17:50.921Z,1.30
2019-01-31T05:18:50.795Z,1.20
2019-01-31T05:19:50.817Z,1.10
2019-01-31T05:20:50.792Z,1.20
2019-01-31T05:21:50.805Z,1.20
2019-01-31T05:22:50.753Z,1.20
2019-01-31T05:23:50.744Z,1.10
2019-01-31T05:24:50.759Z,1.10
2019-01-31T05:25:50.797Z,1.30
2019-01-31T05:26:50.730Z,1.20
2019-01-31T05:27:50.781Z,1.30
2019-01-31T05:28:50.683Z,1.30
2019-01-31T05:29:50.670Z,1.10
2019-01-31T05:30:50.728Z,1.30
2019-01-31T05:31:50.660Z,1.30
2019-01-31T05:32:50.637Z,1.30
2019-01-31T05:33:50.706Z,1.30
2019-01-31T05:34:50.635Z,1.10
2019-01-31T05:35:50.637Z,1.20
2019-01-31T05:36:50.617Z,1.10
2019-01-31T05:37:50.580Z,1.10
2019-01-31T05:38:50.578Z,1.10
2019-01-31T05:39:50.650Z,1.30
2019-01-31T05:40:55.520Z,1.90
2019-01-31T05:41:51.588Z,2.70
2019-01-31T05:42:50.550Z,3.00
2019-01-31T05:43:50.520Z,3.10
2019-01-31T05:44:50.513Z,1.30
2019-01-31T05:45:50.490Z,1.30
2019-01-31T05:46:50.522Z,1.40
2019-01-31T05:47:50.470Z,1.50
2019-01-31T05:48:50.456Z,1.40
2019-01-31T05:49:50.447Z,1.50
2019-01-31T05:50:50.552Z,1.50
2019-01-31T05:51:50.486Z,1.50
2019-01-31T05:52:50.424Z,1.30
2019-01-31T05:53:50.397Z,1.50
2019-01-31T05:54:50.416Z,1.50
2019-01-31T05:55:50.377Z,1.50
2019-01-31T05:56:50.447Z,1.60
2019-01-31T05:57:50.369Z,1.70
2019-01-31T05:58:50.383Z,1.40
2019-01-31T05:59:50.338Z,1.30
2019-01-31T06:00:50.317Z,1.40
2019-01-31T06:01:50.410Z,1.30
2019-01-31T06:02:50.312Z,1.50
2019-01-31T06:03:50.284Z,1.50
2019-01-31T06:04:50.338Z,1.60
2019-01-31T06:05:50.383Z,1.30
2019-01-31T06:06:50.271Z,1.30
2019-01-31T06:07:50.301Z,1.40
2019-01-31T06:08:50.264Z,1.40
2019-01-31T06:09:50.241Z,1.40
2019-01-31T06:10:50.236Z,1.30
2019-01-31T06:11:50.328Z,1.40
2019-01-31T06:12:50.203Z,1.30
2019-01-31T06:13:50.247Z,1.40
2019-01-31T06:14:50.209Z,1.40
2019-01-31T06:15:50.146Z,1.50
2019-01-31T06:16:50.151Z,1.30
2019-01-31T06:17:50.131Z,1.40
2019-01-31T06:18:50.135Z,1.30
2019-01-31T06:19:50.107Z,1.20
2019-01-31T06:20:50.168Z,1.40
2019-01-31T06:21:50.141Z,1.30
2019-01-31T06:22:50.097Z,1.20
2019-01-31T06:23:50.064Z,1.30
2019-01-31T06:24:50.132Z,1.30
2019-01-31T06:25:50.075Z,1.20
2019-01-31T06:26:50.090Z,1.10
2019-01-31T06:27:50.047Z,1.30
2019-01-31T06:28:50.020Z,1.40
2019-01-31T06:29:49.989Z,1.30
2019-01-31T06:30:49.991Z,1.30
2019-01-31T06:31:50.007Z,1.30
2019-01-31T06:32:49.977Z,1.20
2019-01-31T06:33:49.950Z,1.20
2019-01-31T06:34:49.989Z,1.40
2019-01-31T06:35:49.939Z,1.20
2019-01-31T06:36:49.922Z,1.30
2019-01-31T06:37:50.016Z,1.10
2019-01-31T06:38:50.035Z,1.40
2019-01-31T06:39:49.874Z,1.40
2019-01-31T06:40:49.928Z,1.20
2019-01-31T06:41:49.878Z,1.10
2019-01-31T06:42:49.866Z,1.40
2019-01-31T06:43:49.897Z,1.30
2019-01-31T06:44:49.820Z,1.20
2019-01-31T06:45:49.867Z,1.20
2019-01-31T06:46:49.836Z,1.40
2019-01-31T06:47:49.854Z,1.10
2019-01-31T06:48:49.772Z,1.20
2019-01-31T06:49:49.790Z,1.20
2019-01-31T06:50:49.810Z,1.20
2019-01-31T06:51:49.736Z,1.30
2019-01-31T06:52:49.735Z,1.20
2019-01-31T06:53:49.842Z,1.10
2019-01-31T06:54:49.728Z,1.30
2019-01-31T06:55:49.696Z,1.10
2019-01-31T06:56:49.682Z,1.20
2019-01-31T06:57:49.684Z,1.50
2019-01-31T06:58:49.667Z,1.40
2019-01-31T06:59:49.656Z,1.20
2019-01-31T07:00:49.672Z,1.30
2019-01-31T07:01:49.649Z,1.30
2019-01-31T07:02:49.660Z,1.20
2019-01-31T07:03:49.651Z,1.20
2019-01-31T07:04:49.645Z,1.20
2019-01-31T07:05:49.586Z,1.30
2019-01-31T07:06:49.580Z,1.30
2019-01-31T07:07:49.578Z,1.10
2019-01-31T07:08:49.569Z,1.10
2019-01-31T07:09:49.600Z,1.20
2019-01-31T07:10:49.530Z,1.20
2019-01-31T07:11:49.650Z,1.10
2019-01-31T07:12:49.517Z,1.10
2019-01-31T07:13:49.608Z,1.30
2019-01-31T07:14:49.492Z,1.10
2019-01-31T07:15:49.474Z,1.40
2019-01-31T07:16:49.474Z,1.20
2019-01-31T07:17:49.449Z,1.20
2019-01-31T07:18:49.456Z,1.00
2019-01-31T07:19:49.429Z,0.90
2019-01-31T07:20:49.420Z,1.00
2019-01-31T07:21:49.427Z,1.10
2019-01-31T07:22:49.416Z,1.00
2019-01-31T07:23:49.388Z,1.10
2019-01-31T07:24:49.369Z,1.00
2019-01-31T07:25:49.387Z,0.90
2019-01-31T07:26:49.344Z,0.90
2019-01-31T07:27:49.335Z,0.90
2019-01-31T07:28:49.417Z,0.80
2019-01-31T07:29:49.331Z,0.90
2019-01-31T07:30:49.303Z,1.00
2019-01-31T07:31:49.283Z,0.90
2019-01-31T07:32:49.348Z,1.00
2019-01-31T07:33:49.610Z,1.10
2019-01-31T07:34:49.260Z,1.00
2019-01-31T07:35:52.105Z,1.00
2019-01-31T07:36:49.260Z,0.90
2019-01-31T07:37:49.279Z,0.80
2019-01-31T07:38:49.245Z,0.90
2019-01-31T07:39:49.212Z,0.90
2019-01-31T07:40:49.319Z,0.90
2019-01-31T07:41:49.198Z,0.70
2019-01-31T07:42:49.170Z,0.90
2019-01-31T07:43:49.155Z,0.80
2019-01-31T07:44:49.164Z,0.70
2019-01-31T07:45:49.147Z,0.90
2019-01-31T07:46:49.121Z,0.80
2019-01-31T07:47:49.110Z,0.90
2019-01-31T07:48:49.091Z,0.80
2019-01-31T07:49:49.092Z,0.80
2019-01-31T07:50:49.109Z,0.80
2019-01-31T07:51:49.106Z,0.90
2019-01-31T07:52:49.062Z,0.90
2019-01-31T07:53:49.041Z,0.90
2019-01-31T07:54:49.187Z,0.80
2019-01-31T07:55:49.025Z,0.90
2019-01-31T07:56:49.018Z,0.80
2019-01-31T07:57:49.033Z,0.90
2019-01-31T07:58:48.987Z,0.90
2019-01-31T07:59:49.002Z,0.90
2019-01-31T08:00:49.006Z,0.90
2019-01-31T08:01:48.957Z,0.80
2019-01-31T08:02:48.939Z,0.90
2019-01-31T08:03:48.936Z,1.20
2019-01-31T08:04:48.934Z,1.00
2019-01-31T08:05:48.949Z,0.90
2019-01-31T08:06:48.890Z,0.90
2019-01-31T08:07:48.912Z,0.90
2019-01-31T08:08:49.099Z,0.90
2019-01-31T08:09:48.865Z,1.10
2019-01-31T08:10:48.867Z,0.90
2019-01-31T08:11:52.812Z,1.00
2019-01-31T08:12:48.822Z,0.80
2019-01-31T08:13:48.854Z,1.00
2019-01-31T08:14:48.862Z,0.90
2019-01-31T08:15:48.802Z,1.10
2019-01-31T08:16:48.779Z,1.10
2019-01-31T08:17:48.778Z,0.80
2019-01-31T08:18:48.773Z,1.00
2019-01-31T08:19:48.781Z,0.80
2019-01-31T08:20:49.119Z,0.90
2019-01-31T08:21:48.756Z,0.80
2019-01-31T08:22:48.730Z,1.00
2019-01-31T08:23:48.750Z,0.80
2019-01-31T08:24:48.716Z,0.80
2019-01-31T08:25:48.706Z,1.00
2019-01-31T08:26:48.678Z,0.90
2019-01-31T08:27:48.797Z,1.10
2019-01-31T08:28:48.644Z,1.00
2019-01-31T08:29:48.637Z,0.80
2019-01-31T08:30:48.654Z,1.00
2019-01-31T08:31:48.653Z,1.10
2019-01-31T08:32:48.604Z,0.90
2019-01-31T08:33:48.588Z,1.00
2019-01-31T08:34:48.599Z,1.00
2019-01-31T08:35:48.585Z,1.00
2019-01-31T08:36:48.563Z,0.90
2019-01-31T08:37:48.543Z,0.90
2019-01-31T08:38:48.617Z,1.00
2019-01-31T08:39:48.649Z,0.90
2019-01-31T08:40:49.659Z,1.10
2019-01-31T08:41:48.601Z,1.00
2019-01-31T08:42:48.525Z,1.20
2019-01-31T08:43:48.502Z,1.10
2019-01-31T08:44:48.481Z,1.10
2019-01-31T08:45:48.489Z,0.90
2019-01-31T08:46:48.444Z,1.00
2019-01-31T08:47:48.424Z,0.90
2019-01-31T08:48:48.478Z,1.00
2019-01-31T08:49:48.412Z,0.90
2019-01-31T08:50:48.627Z,0.90
2019-01-31T08:51:48.410Z,1.10
2019-01-31T08:52:48.392Z,1.10
2019-01-31T08:53:48.515Z,1.40
2019-01-31T08:54:48.387Z,1.10
2019-01-31T08:55:48.502Z,1.20
2019-01-31T08:56:48.340Z,1.10
2019-01-31T08:57:48.347Z,1.00
2019-01-31T08:58:48.428Z,1.00
2019-01-31T08:59:48.328Z,1.10
2019-01-31T09:00:48.300Z,1.00
2019-01-31T09:01:48.289Z,0.90
2019-01-31T09:02:48.276Z,1.00
2019-01-31T09:03:48.286Z,0.90
2019-01-31T09:04:48.260Z,0.90
2019-01-31T09:05:48.223Z,1.10
2019-01-31T09:06:48.255Z,1.10
2019-01-31T09:07:48.264Z,1.10
2019-01-31T09:08:48.412Z,1.10
2019-01-31T09:09:48.229Z,0.90
2019-01-31T09:10:48.185Z,1.00
2019-01-31T09:11:48.246Z,0.80
2019-01-31T09:12:48.248Z,1.10
2019-01-31T09:13:48.223Z,1.00
2019-01-31T09:14:48.195Z,1.00
2019-01-31T09:15:48.160Z,1.00
2019-01-31T09:16:48.100Z,1.10
2019-01-31T09:17:48.119Z,0.90
2019-01-31T09:18:48.084Z,1.10
2019-01-31T09:19:48.187Z,1.10
2019-01-31T09:20:48.061Z,1.00
2019-01-31T09:21:48.106Z,1.20
2019-01-31T09:22:48.107Z,1.10
2019-01-31T09:23:48.037Z,1.00
2019-01-31T09:24:48.060Z,0.90
2019-01-31T09:25:48.069Z,1.10
2019-01-31T09:26:48.019Z,1.00
2019-01-31T09:27:47.979Z,0.90
2019-01-31T09:28:47.963Z,1.00
2019-01-31T09:29:47.948Z,1.20
2019-01-31T09:30:48.009Z,0.90
2019-01-31T09:31:47.990Z,1.10
2019-01-31T09:32:47.951Z,1.00
2019-01-31T09:33:47.915Z,1.20
2019-01-31T09:34:47.902Z,0.90
2019-01-31T09:35:47.902Z,1.00
2019-01-31T09:36:47.869Z,1.00
2019-01-31T09:37:47.880Z,1.20
2019-01-31T09:38:47.856Z,0.90
2019-01-31T09:39:47.849Z,1.10
2019-01-31T09:40:47.862Z,1.20
2019-01-31T09:41:47.858Z,1.10
2019-01-31T09:42:47.821Z,1.20
2019-01-31T09:43:47.792Z,1.00
2019-01-31T09:44:47.786Z,1.10
2019-01-31T09:45:47.768Z,1.10
2019-01-31T09:46:47.763Z,1.10
2019-01-31T09:47:47.755Z,1.10
2019-01-31T09:48:47.745Z,1.00
2019-01-31T09:49:47.739Z,1.20
2019-01-31T09:50:47.713Z,1.00
2019-01-31T09:51:47.702Z,1.10
2019-01-31T09:52:47.699Z,1.00
2019-01-31T09:53:47.692Z,1.00
2019-01-31T09:54:47.667Z,1.00
2019-01-31T09:55:47.659Z,1.10
2019-01-31T09:56:47.672Z,1.10
2019-01-31T09:57:47.704Z,1.00
2019-01-31T09:58:47.637Z,1.10
2019-01-31T09:59:47.719Z,1.10
2019-01-31T10:00:47.657Z,1.40
2019-01-31T10:01:47.585Z,0.90
2019-01-31T10:02:47.600Z,1.10
2019-01-31T10:03:47.567Z,1.10
2019-01-31T10:04:47.553Z,1.10
2019-01-31T10:05:47.647Z,1.20
2019-01-31T10:06:47.655Z,1.00
2019-01-31T10:07:47.617Z,1.00
2019-01-31T10:08:47.526Z,1.10
2019-01-31T10:09:47.702Z,0.90
2019-01-31T10:10:47.587Z,1.10
2019-01-31T10:11:47.868Z,0.90
2019-01-31T10:12:47.545Z,1.00
2019-01-31T10:13:47.535Z,1.20
2019-01-31T10:14:47.457Z,1.20
2019-01-31T10:15:47.502Z,0.90
2019-01-31T10:16:47.507Z,1.10
2019-01-31T10:17:47.420Z,1.10
2019-01-31T10:18:47.453Z,1.00
2019-01-31T10:19:47.575Z,1.00
2019-01-31T10:20:47.458Z,1.00
2019-01-31T10:21:47.441Z,1.10
2019-01-31T10:22:47.362Z,1.00
2019-01-31T10:23:47.560Z,1.10
2019-01-31T10:24:47.359Z,1.20
2019-01-31T10:25:47.325Z,1.10
2019-01-31T10:26:47.368Z,1.00
2019-01-31T10:27:47.344Z,1.10
2019-01-31T10:28:47.312Z,1.10
2019-01-31T10:29:47.279Z,1.00
2019-01-31T10:30:47.262Z,1.00
2019-01-31T10:31:47.271Z,0.80
2019-01-31T10:32:47.269Z,1.00
2019-01-31T10:33:47.324Z,1.00
2019-01-31T10:34:47.220Z,1.20
2019-01-31T10:35:47.201Z,1.00
2019-01-31T10:36:47.245Z,1.10
2019-01-31T10:37:47.198Z,1.20
2019-01-31T10:38:47.206Z,1.00
2019-01-31T10:39:47.161Z,1.00
2019-01-31T10:40:47.164Z,1.10
2019-01-31T10:41:47.263Z,1.10
2019-01-31T10:42:50.551Z,1.10
2019-01-31T10:43:48.151Z,1.00
2019-01-31T10:44:47.129Z,1.00
2019-01-31T10:45:47.093Z,1.10
2019-01-31T10:46:47.081Z,1.10
2019-01-31T10:47:47.072Z,1.00
2019-01-31T10:48:47.065Z,1.30
2019-01-31T10:49:47.062Z,1.00
2019-01-31T10:50:47.052Z,0.90
2019-01-31T10:51:47.045Z,1.00
2019-01-31T10:52:47.085Z,1.10
2019-01-31T10:53:47.010Z,1.00
2019-01-31T10:54:47.004Z,1.00
2019-01-31T10:55:47.041Z,0.90
2019-01-31T10:56:46.990Z,1.20
2019-01-31T10:57:46.957Z,1.00
2019-01-31T10:58:46.946Z,1.00
2019-01-31T10:59:46.945Z,1.00
2019-01-31T11:00:46.938Z,1.10
2019-01-31T11:01:46.916Z,0.90
2019-01-31T11:02:47.927Z,1.10
2019-01-31T11:03:46.885Z,1.00
2019-01-31T11:04:46.889Z,1.10
2019-01-31T11:05:46.976Z,1.20
2019-01-31T11:06:46.871Z,1.20
2019-01-31T11:07:46.888Z,1.00
2019-01-31T11:08:46.951Z,1.00
2019-01-31T11:09:47.050Z,1.30
2019-01-31T11:10:46.828Z,1.00
2019-01-31T11:11:46.910Z,1.20
2019-01-31T11:12:46.830Z,1.10
2019-01-31T11:13:46.790Z,1.10
2019-01-31T11:14:47.720Z,1.00
2019-01-31T11:15:47.111Z,1.00
2019-01-31T11:16:46.791Z,1.10
2019-01-31T11:17:47.090Z,1.10
2019-01-31T11:18:46.724Z,1.10
2019-01-31T11:19:46.750Z,1.10
2019-01-31T11:20:46.691Z,1.10
2019-01-31T11:21:46.806Z,1.00
2019-01-31T11:22:46.694Z,1.00
2019-01-31T11:23:46.688Z,1.00
2019-01-31T11:24:46.658Z,1.10
2019-01-31T11:25:46.679Z,1.00
2019-01-31T11:26:46.643Z,1.10
2019-01-31T11:27:46.617Z,1.10
2019-01-31T11:28:46.605Z,1.00
2019-01-31T11:29:46.591Z,1.20
2019-01-31T11:30:46.648Z,1.00
2019-01-31T11:31:46.587Z,1.10
2019-01-31T11:32:46.583Z,1.40
2019-01-31T11:33:46.557Z,1.10
2019-01-31T11:34:46.537Z,1.10
2019-01-31T11:35:46.568Z,1.00
2019-01-31T11:36:46.524Z,1.10
2019-01-31T11:37:46.516Z,1.10
2019-01-31T11:38:46.615Z,1.10
2019-01-31T11:39:47.268Z,1.20
2019-01-31T11:40:46.518Z,1.10
2019-01-31T11:41:46.546Z,1.00
2019-01-31T11:42:46.465Z,1.30
2019-01-31T11:43:46.493Z,1.10
2019-01-31T11:44:46.443Z,1.20
2019-01-31T11:45:46.430Z,1.20
2019-01-31T11:46:46.398Z,1.10
2019-01-31T11:47:46.386Z,1.20
2019-01-31T11:48:46.434Z,1.20
2019-01-31T11:49:46.484Z,1.20
2019-01-31T11:50:46.386Z,1.20
2019-01-31T11:51:46.348Z,1.20
2019-01-31T11:52:46.349Z,1.10
2019-01-31T11:53:46.447Z,1.20
2019-01-31T11:54:46.309Z,1.20
2019-01-31T11:55:46.329Z,1.40
2019-01-31T11:56:46.315Z,1.20
2019-01-31T11:57:46.274Z,1.10
2019-01-31T11:58:46.290Z,1.00
2019-01-31T11:59:46.250Z,1.00
2019-01-31T12:00:46.269Z,1.10
2019-01-31T12:01:46.256Z,1.00
2019-01-31T12:02:54.724Z,0.90
2019-01-31T12:03:47.244Z,1.10
2019-01-31T12:04:46.199Z,1.00
2019-01-31T12:05:46.231Z,1.00
2019-01-31T12:06:46.178Z,0.90
2019-01-31T12:07:46.178Z,1.10
2019-01-31T12:08:46.165Z,1.10
2019-01-31T12:09:46.194Z,1.00
2019-01-31T12:10:46.168Z,1.00
2019-01-31T12:11:46.229Z,0.80
2019-01-31T12:12:46.108Z,0.90
2019-01-31T12:13:46.119Z,0.80
2019-01-31T12:14:46.130Z,0.90
2019-01-31T12:15:46.099Z,0.90
2019-01-31T12:16:46.066Z,0.80
2019-01-31T12:17:46.083Z,0.90
2019-01-31T12:18:46.062Z,0.80
2019-01-31T12:19:46.088Z,0.90
2019-01-31T12:20:46.095Z,0.90
2019-01-31T12:21:45.998Z,0.80
2019-01-31T12:22:46.077Z,0.80
2019-01-31T12:23:45.986Z,0.70
2019-01-31T12:24:45.979Z,0.80
2019-01-31T12:25:45.966Z,0.80
2019-01-31T12:26:45.991Z,0.80
2019-01-31T12:27:46.016Z,0.90
2019-01-31T12:28:45.927Z,1.00
2019-01-31T12:29:45.937Z,0.80
2019-01-31T12:30:45.926Z,0.80
2019-01-31T12:31:45.894Z,0.80
2019-01-31T12:32:45.894Z,0.80
2019-01-31T12:33:45.875Z,1.00
2019-01-31T12:34:45.855Z,0.80
2019-01-31T12:35:45.912Z,0.80
2019-01-31T12:36:45.869Z,0.80
2019-01-31T12:37:45.827Z,0.80
2019-01-31T12:38:46.667Z,0.80
2019-01-31T12:39:45.813Z,0.80
2019-01-31T12:40:45.822Z,0.90
2019-01-31T12:41:45.822Z,0.70
2019-01-31T12:42:45.766Z,0.70
2019-01-31T12:43:45.762Z,0.80
2019-01-31T12:44:45.890Z,0.70
2019-01-31T12:45:45.729Z,0.90
2019-01-31T12:46:45.764Z,0.90
2019-01-31T12:47:45.743Z,0.80
2019-01-31T12:48:45.756Z,0.70
2019-01-31T12:49:45.697Z,0.80
2019-01-31T12:50:45.766Z,0.70
2019-01-31T12:51:45.690Z,0.70
2019-01-31T12:52:45.723Z,0.90
2019-01-31T12:53:45.742Z,0.90
2019-01-31T12:54:45.735Z,0.90
2019-01-31T12:55:45.654Z,1.00
2019-01-31T12:56:45.726Z,0.90
2019-01-31T12:57:45.671Z,1.10
2019-01-31T12:58:45.665Z,1.10
2019-01-31T12:59:45.628Z,1.10
2019-01-31T13:00:45.642Z,1.20
2019-01-31T13:01:45.653Z,1.10
2019-01-31T13:02:45.534Z,1.00
2019-01-31T13:03:45.551Z,1.10
2019-01-31T13:04:45.529Z,1.10
2019-01-31T13:05:45.592Z,1.10
2019-01-31T13:06:45.495Z,1.20
2019-01-31T13:07:45.521Z,1.30
2019-01-31T13:08:45.494Z,1.20
2019-01-31T13:09:45.478Z,1.20
2019-01-31T13:10:45.498Z,1.20
2019-01-31T13:11:50.158Z,1.30
2019-01-31T13:12:48.957Z,1.20
2019-01-31T13:13:46.377Z,1.20
2019-01-31T13:14:45.466Z,1.40
2019-01-31T13:15:45.407Z,1.20
2019-01-31T13:16:45.387Z,1.30
2019-01-31T13:17:45.373Z,1.20
2019-01-31T13:18:45.408Z,1.30